Time;durP1;ratioP1;P1;durP2;ratioP2;P2;SDS_P1;SDS_P2;PMS_P1;PMS_P2;Temp;Humidity;BMP_temperature;BMP_pressure;BME280_temperature;BME280_humidity;BME280_pressure;Samples;Min_cycle;Max_cycle;Signal;HPM_P1;HPM_P2
2023/08/07 00:01:00;;;;;;;1.10;0.22;;;13.60;22.30;;;;;;5095359;28;20450;-55
2023/08/07 00:03:27;;;;;;;0.40;0.30;;;13.60;55.80;;;;;;5082253;28;20803;-53
2023/08/07 00:05:55;;;;;;;0.50;0.20;;;13.70;13.40;;;;;;5075836;28;20533;-55
2023/08/07 00:08:21;;;;;;;1.50;0.30;;;13.60;1.00;;;;;;5088401;28;20463;-56
2023/08/07 00:10:49;;;;;;;0.50;0.30;;;13.60;1.70;;;;;;5096035;28;20849;-53
2023/08/07 00:13:15;;;;;;;1.00;0.20;;;13.60;11.70;;;;;;5080653;28;20428;-54
2023/08/07 00:15:44;;;;;;;0.50;0.30;;;13.60;1.00;;;;;;5076674;28;20558;-56
2023/08/07 00:18:11;;;;;;;1.73;0.30;;;13.60;1.00;;;;;;5077711;28;20463;-57
2023/08/07 00:20:38;;;;;;;0.60;0.30;;;13.50;5.00;;;;;;5075504;28;20415;-56
2023/08/07 00:23:04;;;;;;;1.08;0.30;;;13.60;1.00;;;;;;5078473;28;20419;-55
2023/08/07 00:25:31;;;;;;;0.70;0.30;;;13.60;1.00;;;;;;5075486;28;20541;-56
2023/08/07 00:27:58;;;;;;;0.83;0.30;;;13.70;1.00;;;;;;5078828;28;20431;-56
2023/08/07 00:30:25;;;;;;;0.70;0.30;;;13.70;1.00;;;;;;5075275;28;20857;-56
2023/08/07 00:32:53;;;;;;;0.40;0.30;;;13.80;1.00;;;;;;5090632;28;20516;-56
2023/08/07 00:35:20;;;;;;;0.90;0.30;;;13.80;1.00;;;;;;5090018;28;20841;-53
2023/08/07 00:37:47;;;;;;;0.50;0.30;;;13.80;1.00;;;;;;5092964;28;20432;-56
2023/08/07 00:40:14;;;;;;;1.20;0.30;;;14.00;1.00;;;;;;5089448;28;20530;-54
2023/08/07 00:42:41;;;;;;;0.50;0.30;;;13.80;1.00;;;;;;5052582;28;20492;-55
2023/08/07 00:45:09;;;;;;;0.60;0.30;;;13.80;1.00;;;;;;5063130;28;20473;-53
2023/08/07 00:47:37;;;;;;;0.50;0.30;;;13.70;1.00;;;;;;5074874;28;20519;-55
2023/08/07 00:50:07;;;;;;;1.25;0.30;;;13.70;1.00;;;;;;5078407;28;20813;-56
2023/08/07 00:52:34;;;;;;;0.60;0.30;;;13.80;1.00;;;;;;5095591;28;20469;-56
2023/08/07 00:55:01;;;;;;;0.60;0.30;;;13.80;1.00;;;;;;5078973;28;20539;-57
2023/08/07 00:57:29;;;;;;;0.50;0.30;;;13.70;1.00;;;;;;5055495;28;20782;-55
2023/08/07 00:59:55;;;;;;;0.60;0.30;;;13.50;1.00;;;;;;5059253;28;20478;-56
2023/08/07 01:02:22;;;;;;;1.10;0.30;;;13.50;1.00;;;;;;5075140;28;20416;-57
2023/08/07 01:04:51;;;;;;;0.50;0.30;;;13.60;1.00;;;;;;5074136;28;20431;-56
2023/08/07 01:07:19;;;;;;;0.60;0.20;;;13.70;1.00;;;;;;5093199;28;20818;-57
2023/08/07 01:09:46;;;;;;;0.50;0.30;;;13.70;1.00;;;;;;5091986;28;20471;-55
2023/08/07 01:12:17;;;;;;;0.70;0.30;;;13.60;1.00;;;;;;5063851;28;20520;-55
2023/08/07 01:14:53;;;;;;;0.60;0.30;;;13.60;1.00;;;;;;5054156;28;20500;-56
2023/08/07 01:17:22;;;;;;;0.80;0.30;;;13.70;1.00;;;;;;5072243;28;20790;-58
2023/08/07 01:19:51;;;;;;;0.60;0.30;;;13.70;1.00;;;;;;5073436;28;20914;-50
2023/08/07 01:22:20;;;;;;;0.55;0.20;;;13.70;1.00;;;;;;5070512;28;20427;-51
2023/08/07 01:24:48;;;;;;;0.60;0.30;;;13.70;1.00;;;;;;5074895;28;20462;-54
2023/08/07 01:27:36;;;;;;;1.00;0.30;;;13.60;1.00;;;;;;5076534;28;20474;-54
2023/08/07 01:30:10;;;;;;;0.68;0.30;;;13.70;1.00;;;;;;5075804;28;20523;-56
2023/08/07 01:32:44;;;;;;;0.60;0.30;;;14.00;1.00;;;;;;5094203;28;20520;-54
2023/08/07 01:35:13;;;;;;;0.50;0.30;;;13.80;1.00;;;;;;5089253;28;20428;-55
2023/08/07 01:37:43;;;;;;;0.50;0.30;;;13.80;1.00;;;;;;5074739;28;20462;-56
2023/08/07 01:40:11;;;;;;;0.70;0.30;;;13.90;1.00;;;;;;5081660;28;20454;-56
2023/08/07 01:42:39;;;;;;;1.00;0.30;;;14.00;1.00;;;;;;5093472;28;20508;-50
2023/08/07 01:45:06;;;;;;;0.50;0.30;;;14.00;1.00;;;;;;5073541;28;20474;-55
2023/08/07 01:47:33;;;;;;;0.60;0.30;;;13.90;1.00;;;;;;5053725;28;20433;-54
2023/08/07 01:50:00;;;;;;;0.65;0.30;;;14.00;1.00;;;;;;5071722;28;20855;-57
2023/08/07 01:52:27;;;;;;;0.80;0.30;;;13.90;1.00;;;;;;5074663;28;20423;-57
2023/08/07 01:54:55;;;;;;;0.40;0.30;;;14.10;1.00;;;;;;5074608;28;20950;-56
2023/08/07 01:57:22;;;;;;;0.70;0.28;;;14.20;1.00;;;;;;5074846;28;20423;-56
2023/08/07 01:59:49;;;;;;;0.52;0.30;;;13.90;1.00;;;;;;5075993;28;20434;-56
2023/08/07 02:02:16;;;;;;;0.50;0.30;;;13.90;1.00;;;;;;5074245;28;20518;-57
2023/08/07 02:04:44;;;;;;;0.82;0.30;;;14.10;1.00;;;;;;5083261;28;20441;-56
2023/08/07 02:07:11;;;;;;;0.55;0.30;;;13.90;1.00;;;;;;5092559;28;20434;-56
2023/08/07 02:09:37;;;;;;;0.90;0.30;;;13.80;1.00;;;;;;5067148;28;20469;-57
2023/08/07 02:12:08;;;;;;;0.50;0.30;;;14.00;1.00;;;;;;5052374;28;20460;-56
2023/08/07 02:14:34;;;;;;;0.90;0.30;;;14.00;1.00;;;;;;5064775;28;20916;-53
2023/08/07 02:17:01;;;;;;;1.15;0.40;;;14.00;1.00;;;;;;5072859;28;20887;-52
2023/08/07 02:19:28;;;;;;;0.57;0.30;;;14.10;1.00;;;;;;5069166;28;20894;-55
2023/08/07 02:21:57;;;;;;;0.55;0.30;;;13.90;1.00;;;;;;5073738;28;20451;-50
2023/08/07 02:24:24;;;;;;;0.60;0.30;;;13.80;1.00;;;;;;5075333;28;20431;-50
2023/08/07 02:26:51;;;;;;;0.50;0.30;;;13.80;1.00;;;;;;5073027;28;20526;-51
2023/08/07 02:29:19;;;;;;;1.40;0.40;;;13.70;1.00;;;;;;5088388;28;20422;-56
2023/08/07 02:31:46;;;;;;;1.60;0.30;;;13.90;1.00;;;;;;5093737;28;20934;-55
2023/08/07 02:34:13;;;;;;;0.77;0.30;;;13.80;1.00;;;;;;5078998;28;20521;-55
2023/08/07 02:36:40;;;;;;;0.50;0.30;;;13.90;1.00;;;;;;5073627;28;20529;-57
2023/08/07 02:39:08;;;;;;;0.65;0.30;;;14.00;1.00;;;;;;5086234;28;20794;-57
2023/08/07 02:41:35;;;;;;;0.90;0.30;;;14.00;1.00;;;;;;5093908;28;20516;-57
2023/08/07 02:44:02;;;;;;;0.40;0.20;;;14.20;1.00;;;;;;5087639;28;20473;-56
2023/08/07 02:46:30;;;;;;;0.70;0.30;;;14.10;1.00;;;;;;5094073;28;20457;-56
2023/08/07 02:48:57;;;;;;;0.77;0.30;;;13.90;1.00;;;;;;5089473;28;20861;-56
2023/08/07 02:51:23;;;;;;;0.60;0.30;;;13.80;1.00;;;;;;5094329;28;20472;-54
2023/08/07 02:53:50;;;;;;;1.10;0.30;;;13.80;1.00;;;;;;5060965;28;20464;-56
2023/08/07 02:56:17;;;;;;;1.20;0.30;;;14.00;99.90;;;;;;5054051;28;20464;-54
2023/08/07 02:58:44;;;;;;;1.60;0.40;;;13.70;99.90;;;;;;5092848;28;20921;-54
2023/08/07 03:01:11;;;;;;;1.40;0.30;;;13.60;99.90;;;;;;5064021;28;20840;-51
2023/08/07 03:03:39;;;;;;;1.75;0.40;;;13.60;1.00;;;;;;5080097;28;20442;-54
2023/08/07 03:06:06;;;;;;;0.70;0.30;;;13.60;99.90;;;;;;5078204;28;20437;-55
2023/08/07 03:08:33;;;;;;;0.70;0.30;;;13.60;1.00;;;;;;5078090;28;20526;-55
2023/08/07 03:11:00;;;;;;;1.90;0.40;;;13.50;1.00;;;;;;5077825;28;20517;-51
2023/08/07 03:13:28;;;;;;;0.70;0.30;;;13.70;99.90;;;;;;5096716;28;20433;-54
2023/08/07 03:16:00;;;;;;;1.10;0.30;;;13.80;99.90;;;;;;5092703;28;20779;-55
2023/08/07 03:18:27;;;;;;;1.73;0.40;;;13.60;99.90;;;;;;5095912;28;20519;-54
2023/08/07 03:20:55;;;;;;;1.33;0.30;;;13.70;99.90;;;;;;5090579;28;20520;-55
2023/08/07 03:23:23;;;;;;;2.08;0.30;;;13.60;1.00;;;;;;5074614;28;20456;-53
2023/08/07 03:25:50;;;;;;;0.60;0.30;;;13.60;1.00;;;;;;5067842;28;20552;-55
2023/08/07 03:28:17;;;;;;;0.80;0.35;;;13.70;99.90;;;;;;5054682;28;20441;-56
2023/08/07 03:30:44;;;;;;;0.70;0.30;;;13.80;99.90;;;;;;5069656;28;20533;-55
2023/08/07 03:33:11;;;;;;;0.77;0.40;;;13.60;99.90;;;;;;5095902;28;20425;-55
2023/08/07 03:35:38;;;;;;;1.17;0.30;;;13.50;99.90;;;;;;5088110;28;20859;-54
2023/08/07 03:38:06;;;;;;;1.30;0.30;;;13.80;99.90;;;;;;5074970;28;20502;-56
2023/08/07 03:40:34;;;;;;;1.00;0.30;;;13.70;99.90;;;;;;5079187;28;20432;-56
2023/08/07 03:43:01;;;;;;;1.20;0.20;;;13.50;99.90;;;;;;5076265;28;20484;-54
2023/08/07 03:45:28;;;;;;;0.90;0.30;;;13.70;1.00;;;;;;5079494;28;20935;-55
2023/08/07 03:47:55;;;;;;;1.10;0.30;;;13.70;99.90;;;;;;5075214;28;20518;-56
2023/08/07 03:50:21;;;;;;;1.30;0.30;;;13.60;99.90;;;;;;5077091;28;20506;-53
2023/08/07 03:52:48;;;;;;;0.60;0.30;;;13.60;99.90;;;;;;5076472;28;20898;-56
2023/08/07 03:55:18;;;;;;;0.80;0.30;;;13.50;99.90;;;;;;5076305;28;20515;-54
2023/08/07 03:57:44;;;;;;;0.70;0.30;;;13.60;99.90;;;;;;5075390;28;20790;-58
2023/08/07 04:00:13;;;;;;;1.00;0.30;;;13.70;99.90;;;;;;5082648;28;20524;-56
2023/08/07 04:02:40;;;;;;;1.50;0.30;;;13.60;99.90;;;;;;5095289;28;20801;-56
2023/08/07 04:05:07;;;;;;;1.40;0.40;;;13.60;99.90;;;;;;5085866;28;20511;-53
2023/08/07 04:07:34;;;;;;;1.40;0.30;;;13.70;99.90;;;;;;5074954;28;20475;-57
2023/08/07 04:10:01;;;;;;;1.40;0.20;;;13.60;99.90;;;;;;5066060;28;20911;-56
2023/08/07 04:12:29;;;;;;;1.20;0.30;;;13.60;99.90;;;;;;5055008;28;20511;-54
2023/08/07 04:14:56;;;;;;;0.90;0.30;;;13.60;1.00;;;;;;5080072;28;20512;-56
2023/08/07 04:17:26;;;;;;;0.80;0.30;;;13.50;99.90;;;;;;5095157;28;20509;-55
2023/08/07 04:19:53;;;;;;;0.70;0.30;;;13.40;1.00;;;;;;5080500;28;20489;-55
2023/08/07 04:22:20;;;;;;;0.60;0.30;;;13.40;99.90;;;;;;5074660;28;20431;-56
2023/08/07 04:24:47;;;;;;;0.93;0.30;;;13.20;99.90;;;;;;5078460;28;20998;-54
2023/08/07 04:27:13;;;;;;;1.10;0.30;;;13.20;1.00;;;;;;5075898;28;20423;-53
2023/08/07 04:29:42;;;;;;;1.88;0.40;;;13.20;1.00;;;;;;5088050;28;20739;-52
2023/08/07 04:32:09;;;;;;;0.80;0.30;;;13.20;1.00;;;;;;5069586;28;20435;-56
2023/08/07 04:34:36;;;;;;;0.60;0.40;;;13.30;1.00;;;;;;5054574;28;20429;-56
2023/08/07 04:37:03;;;;;;;0.50;0.30;;;13.30;1.00;;;;;;5062002;28;20522;-52
2023/08/07 04:39:30;;;;;;;0.80;0.30;;;13.20;1.00;;;;;;5072718;28;20451;-52
2023/08/07 04:41:57;;;;;;;0.73;0.30;;;13.10;1.00;;;;;;5072853;28;20485;-56
2023/08/07 04:44:24;;;;;;;0.80;0.30;;;13.10;1.00;;;;;;5072624;28;20521;-54
2023/08/07 04:46:53;;;;;;;0.90;0.30;;;13.20;1.00;;;;;;5059940;28;20496;-55
2023/08/07 04:49:20;;;;;;;0.60;0.30;;;13.40;1.00;;;;;;5074780;28;20998;-56
2023/08/07 04:51:46;;;;;;;0.70;0.40;;;13.40;1.00;;;;;;5092867;28;20517;-56
2023/08/07 04:54:13;;;;;;;0.55;0.30;;;13.50;1.00;;;;;;5085062;28;20455;-55
2023/08/07 04:56:40;;;;;;;0.70;0.30;;;13.60;1.00;;;;;;5073330;28;20499;-55
2023/08/07 04:59:07;;;;;;;1.20;0.30;;;13.50;99.90;;;;;;5072933;28;20416;-54
2023/08/07 05:01:34;;;;;;;1.35;0.40;;;13.60;1.00;;;;;;5071447;28;20691;-54
2023/08/07 05:04:02;;;;;;;0.70;0.30;;;13.60;1.00;;;;;;5070601;28;20459;-55
2023/08/07 05:06:29;;;;;;;0.90;0.30;;;13.60;99.90;;;;;;5079363;28;20426;-56
2023/08/07 05:08:56;;;;;;;1.50;0.40;;;13.70;99.90;;;;;;5092923;28;20536;-54
2023/08/07 05:11:23;;;;;;;0.70;0.30;;;13.90;99.90;;;;;;5093466;28;20500;-57
2023/08/07 05:13:50;;;;;;;0.50;0.20;;;13.90;99.90;;;;;;5093995;28;20504;-55
2023/08/07 05:16:18;;;;;;;0.70;0.30;;;14.00;1.00;;;;;;5094623;28;20521;-55
2023/08/07 05:18:45;;;;;;;0.70;0.40;;;14.00;6.40;;;;;;5094810;28;20440;-55
2023/08/07 05:21:14;;;;;;;1.40;0.30;;;13.90;1.00;;;;;;5093285;28;20499;-54
2023/08/07 05:23:40;;;;;;;0.70;0.30;;;13.80;99.90;;;;;;5093677;28;20417;-55
2023/08/07 05:26:07;;;;;;;0.60;0.30;;;14.00;99.90;;;;;;5082407;28;20801;-55
2023/08/07 05:28:34;;;;;;;0.80;0.30;;;14.10;36.50;;;;;;5074000;28;20875;-55
2023/08/07 05:31:01;;;;;;;0.60;0.30;;;14.10;1.00;;;;;;5073642;28;21043;-54
2023/08/07 05:33:28;;;;;;;0.50;0.30;;;14.10;1.00;;;;;;5074285;28;20451;-56
2023/08/07 05:35:55;;;;;;;1.30;0.30;;;14.20;1.00;;;;;;5065608;28;20520;-56
2023/08/07 05:38:24;;;;;;;0.60;0.30;;;14.40;99.90;;;;;;5054542;28;20417;-55
2023/08/07 05:40:51;;;;;;;1.10;0.30;;;14.30;1.00;;;;;;5076546;28;20509;-56
2023/08/07 05:43:18;;;;;;;0.70;0.20;;;14.30;1.00;;;;;;5094681;28;20421;-57
2023/08/07 05:45:46;;;;;;;0.75;0.30;;;14.40;99.90;;;;;;5091324;28;20438;-56
2023/08/07 05:48:13;;;;;;;0.70;0.30;;;14.30;1.00;;;;;;5093359;28;20430;-56
2023/08/07 05:50:40;;;;;;;1.17;0.35;;;14.20;1.00;;;;;;5082975;28;20481;-57
2023/08/07 05:53:06;;;;;;;1.05;0.30;;;14.30;1.00;;;;;;5072582;28;20816;-55
2023/08/07 05:55:35;;;;;;;1.30;0.30;;;14.40;1.00;;;;;;5080508;28;20516;-55
2023/08/07 05:58:02;;;;;;;0.60;0.30;;;14.40;99.90;;;;;;5093093;28;20994;-54
2023/08/07 06:00:29;;;;;;;1.20;0.30;;;14.40;99.90;;;;;;5078571;28;20807;-55
2023/08/07 06:02:55;;;;;;;1.45;0.30;;;14.50;99.90;;;;;;5073220;28;20518;-56
2023/08/07 06:05:22;;;;;;;1.30;0.30;;;14.50;99.90;;;;;;5077649;28;20451;-57
2023/08/07 06:07:49;;;;;;;1.17;0.20;;;14.40;1.00;;;;;;5073116;28;20529;-55
2023/08/07 06:10:16;;;;;;;0.70;0.30;;;14.70;1.00;;;;;;5073522;28;20503;-57
2023/08/07 06:12:45;;;;;;;0.98;0.30;;;14.70;1.00;;;;;;5069412;28;20943;-54
2023/08/07 06:15:11;;;;;;;3.20;0.30;;;14.80;1.00;;;;;;5071639;28;20473;-53
2023/08/07 06:17:39;;;;;;;0.90;0.30;;;14.90;1.00;;;;;;5072455;28;20439;-55
2023/08/07 06:20:09;;;;;;;1.50;0.30;;;15.10;99.90;;;;;;5085566;28;20422;-56
2023/08/07 06:22:36;;;;;;;0.60;0.30;;;15.10;99.90;;;;;;5093748;28;20770;-53
2023/08/07 06:25:02;;;;;;;1.20;0.30;;;14.90;1.00;;;;;;5075708;28;20543;-55
2023/08/07 06:27:30;;;;;;;0.70;0.30;;;14.90;1.00;;;;;;5073686;28;20424;-56
2023/08/07 06:29:58;;;;;;;1.90;0.30;;;15.00;1.00;;;;;;5074054;28;20435;-57
2023/08/07 06:32:26;;;;;;;1.10;0.30;;;15.00;1.00;;;;;;5074675;28;20485;-56
2023/08/07 06:34:53;;;;;;;1.30;0.30;;;15.00;99.90;;;;;;5078077;28;20602;-57
2023/08/07 06:37:20;;;;;;;1.60;0.30;;;14.70;99.90;;;;;;5063549;28;20902;-56
2023/08/07 06:39:50;;;;;;;0.63;0.30;;;14.70;1.00;;;;;;5072890;28;20482;-53
2023/08/07 06:42:16;;;;;;;0.70;0.30;;;14.90;99.90;;;;;;5065887;28;20536;-56
2023/08/07 06:44:43;;;;;;;1.80;0.30;;;15.20;1.00;;;;;;5071132;28;20450;-56
2023/08/07 06:47:12;;;;;;;0.60;0.30;;;15.50;99.90;;;;;;5076457;28;20509;-56
2023/08/07 06:49:38;;;;;;;0.70;0.30;;;15.30;1.00;;;;;;5087136;28;20875;-54
2023/08/07 06:52:06;;;;;;;1.00;0.30;;;15.40;99.90;;;;;;5074866;28;20827;-56
2023/08/07 06:54:33;;;;;;;0.93;0.40;;;15.50;1.00;;;;;;5081538;28;20526;-55
2023/08/07 06:57:00;;;;;;;1.10;0.30;;;15.70;99.90;;;;;;5075469;28;20514;-56
2023/08/07 06:59:27;;;;;;;2.05;0.30;;;15.70;1.00;;;;;;5084375;28;20467;-55
2023/08/07 07:01:54;;;;;;;0.90;0.30;;;15.60;1.00;;;;;;5068818;28;20844;-55
2023/08/07 07:04:22;;;;;;;0.70;0.30;;;15.40;1.00;;;;;;5090301;28;20439;-56
2023/08/07 07:06:49;;;;;;;0.70;0.30;;;15.70;88.10;;;;;;5090916;28;20525;-57
2023/08/07 07:09:16;;;;;;;0.50;0.30;;;15.80;1.00;;;;;;5090532;28;20532;-56
2023/08/07 07:11:44;;;;;;;0.40;0.30;;;15.90;1.00;;;;;;5093959;28;20474;-57
2023/08/07 07:14:11;;;;;;;0.50;0.30;;;15.80;52.40;;;;;;5077654;28;20427;-56
2023/08/07 07:16:38;;;;;;;0.70;0.30;;;16.00;99.90;;;;;;5076986;28;20441;-56
2023/08/07 07:19:06;;;;;;;0.60;0.30;;;16.10;1.00;;;;;;5075746;28;20431;-57
2023/08/07 07:21:34;;;;;;;0.70;0.30;;;16.00;1.00;;;;;;5074550;28;20936;-57
2023/08/07 07:24:02;;;;;;;0.60;0.30;;;15.90;1.00;;;;;;5052619;28;20509;-57
2023/08/07 07:26:29;;;;;;;0.70;0.30;;;16.10;1.00;;;;;;5060293;28;20474;-57
2023/08/07 07:28:56;;;;;;;3.03;0.70;;;15.80;1.00;;;;;;5087823;28;21096;-57
2023/08/07 07:31:23;;;;;;;1.40;0.40;;;15.90;1.00;;;;;;5075075;28;20441;-54
2023/08/07 07:33:50;;;;;;;0.60;0.30;;;15.90;1.00;;;;;;5073336;28;20533;-57
2023/08/07 07:36:18;;;;;;;0.57;0.30;;;16.10;1.00;;;;;;5089292;28;20517;-55
2023/08/07 07:38:48;;;;;;;0.50;0.30;;;16.20;1.00;;;;;;5074527;28;20435;-54
2023/08/07 07:41:15;;;;;;;0.70;0.30;;;16.10;1.00;;;;;;5076777;28;20517;-57
2023/08/07 07:43:42;;;;;;;0.60;0.30;;;16.10;1.00;;;;;;5073977;28;20518;-57
2023/08/07 07:46:09;;;;;;;1.10;0.30;;;16.20;1.00;;;;;;5069051;28;20434;-52
2023/08/07 07:48:36;;;;;;;0.65;0.30;;;16.30;1.00;;;;;;5091084;28;20544;-54
2023/08/07 07:51:04;;;;;;;0.55;0.30;;;16.40;1.00;;;;;;5072151;28;20547;-53
2023/08/07 07:53:31;;;;;;;0.90;0.30;;;16.50;1.00;;;;;;5071261;28;20449;-55
2023/08/07 07:55:59;;;;;;;0.90;0.30;;;16.20;1.00;;;;;;5072142;28;20427;-55
2023/08/07 07:58:26;;;;;;;1.00;0.30;;;16.20;1.00;;;;;;5074348;28;20514;-52
2023/08/07 08:00:54;;;;;;;0.60;0.30;;;16.20;1.00;;;;;;5068932;28;20468;-56
2023/08/07 08:03:23;;;;;;;0.60;0.30;;;16.50;1.00;;;;;;5053582;28;20456;-56
2023/08/07 08:05:51;;;;;;;0.60;0.30;;;16.40;1.00;;;;;;5076704;28;20451;-54
2023/08/07 08:08:18;;;;;;;1.38;0.75;;;16.30;99.90;;;;;;5071821;28;20488;-58
2023/08/07 08:10:47;;;;;;;0.60;0.30;;;16.40;99.90;;;;;;5077660;28;20541;-59
2023/08/07 08:13:15;;;;;;;0.63;0.20;;;16.40;99.90;;;;;;5071018;28;20587;-59
2023/08/07 08:15:42;;;;;;;1.00;0.30;;;16.20;99.90;;;;;;5074726;28;20812;-59
2023/08/07 08:18:09;;;;;;;0.60;0.30;;;16.10;99.90;;;;;;5055844;28;20861;-59
2023/08/07 08:20:36;;;;;;;0.50;0.30;;;16.20;99.90;;;;;;5076200;28;20469;-59
2023/08/07 08:23:05;;;;;;;0.60;0.30;;;16.30;99.90;;;;;;5072312;28;20494;-59
2023/08/07 08:25:32;;;;;;;0.60;0.30;;;16.20;99.90;;;;;;5064914;28;20484;-59
2023/08/07 08:27:59;;;;;;;1.75;0.73;;;16.20;99.90;;;;;;5072595;28;20591;-59
2023/08/07 08:30:29;;;;;;;0.60;0.30;;;16.50;99.90;;;;;;5070606;28;20439;-60
2023/08/07 08:32:56;;;;;;;0.40;0.20;;;16.50;99.90;;;;;;5071634;28;20724;-59
2023/08/07 08:35:23;;;;;;;0.60;0.30;;;16.40;99.90;;;;;;5070392;28;20438;-59
2023/08/07 08:37:50;;;;;;;0.50;0.20;;;16.60;99.90;;;;;;5071945;28;20862;-60
2023/08/07 08:40:19;;;;;;;0.60;0.30;;;16.50;99.90;;;;;;5071588;28;20530;-60
2023/08/07 08:42:47;;;;;;;0.50;0.20;;;16.60;99.90;;;;;;5069373;28;20447;-60
2023/08/07 08:45:15;;;;;;;0.70;0.30;;;16.70;99.90;;;;;;5073375;28;20735;-60
2023/08/07 08:47:46;;;;;;;0.60;0.40;;;16.90;99.90;;;;;;5073460;28;20827;-58
2023/08/07 08:50:16;;;;;;;0.90;0.20;;;17.20;99.90;;;;;;5089632;28;20462;-60
2023/08/07 08:52:46;;;;;;;0.50;0.20;;;17.40;11.00;;;;;;5087021;28;20446;-60
2023/08/07 08:55:14;;;;;;;0.70;0.20;;;17.40;1.00;;;;;;5062634;28;20438;-60
2023/08/07 08:57:41;;;;;;;0.60;0.30;;;17.50;1.00;;;;;;5066867;28;20883;-60
2023/08/07 09:00:17;;;;;;;1.00;0.25;;;17.30;1.00;;;;;;5070533;28;20531;-59
2023/08/07 09:02:47;;;;;;;0.60;0.30;;;17.20;1.00;;;;;;5068749;28;20443;-59
2023/08/07 09:05:15;;;;;;;0.50;0.20;;;17.70;1.00;;;;;;5072123;28;20407;-59
2023/08/07 09:07:42;;;;;;;1.90;0.20;;;17.80;1.00;;;;;;5075444;28;21037;-55
2023/08/07 09:10:11;;;;;;;0.50;0.30;;;17.60;1.00;;;;;;5073149;28;20520;-58
2023/08/07 09:12:42;;;;;;;0.50;0.20;;;17.80;1.00;;;;;;5077537;28;20465;-58
2023/08/07 09:15:11;;;;;;;0.33;0.20;;;17.80;1.00;;;;;;5072472;28;20426;-57
2023/08/07 09:17:41;;;;;;;0.50;0.20;;;17.90;1.00;;;;;;5075584;28;20532;-58
2023/08/07 09:20:13;;;;;;;0.60;0.30;;;17.80;1.00;;;;;;5091045;28;20814;-58
2023/08/07 09:22:40;;;;;;;0.50;0.22;;;18.00;1.00;;;;;;5075377;28;20439;-58
2023/08/07 09:25:09;;;;;;;0.90;0.20;;;18.00;1.00;;;;;;5070371;28;20958;-58
2023/08/07 09:27:38;;;;;;;0.90;0.20;;;17.90;1.00;;;;;;5081436;28;20749;-58
2023/08/07 09:30:07;;;;;;;1.20;0.20;;;17.90;1.00;;;;;;5080446;28;20526;-56
2023/08/07 09:32:34;;;;;;;0.88;0.30;;;17.80;1.00;;;;;;5072731;28;20429;-54
2023/08/07 09:35:04;;;;;;;0.60;0.30;;;17.70;1.00;;;;;;5068626;28;20492;-52
2023/08/07 09:37:32;;;;;;;0.40;0.20;;;17.80;1.00;;;;;;5072313;28;20931;-53
2023/08/07 09:40:01;;;;;;;0.45;0.20;;;18.00;1.00;;;;;;5064399;28;20526;-54
2023/08/07 09:42:31;;;;;;;0.50;0.20;;;18.20;1.00;;;;;;5070626;28;20778;-53
2023/08/07 09:44:59;;;;;;;0.52;0.20;;;18.40;1.00;;;;;;5071312;28;20510;-56
2023/08/07 09:47:26;;;;;;;0.55;0.20;;;18.40;1.00;;;;;;5072080;28;20511;-56
2023/08/07 09:49:55;;;;;;;0.50;0.20;;;18.50;1.00;;;;;;5060455;28;20429;-54
2023/08/07 09:52:22;;;;;;;1.08;0.30;;;18.40;1.00;;;;;;5065760;28;20538;-54
2023/08/07 09:54:50;;;;;;;0.60;0.30;;;18.60;1.00;;;;;;5059172;28;20461;-52
2023/08/07 09:57:18;;;;;;;0.50;0.30;;;18.90;1.00;;;;;;5059865;28;20750;-51
2023/08/07 09:59:51;;;;;;;0.70;0.40;;;18.90;1.00;;;;;;5070373;28;20548;-55
2023/08/07 10:02:18;;;;;;;0.73;0.22;;;19.00;1.00;;;;;;5068660;28;20435;-56
2023/08/07 10:04:46;;;;;;;0.60;0.30;;;18.90;1.00;;;;;;5071467;28;20514;-55
2023/08/07 10:07:15;;;;;;;0.50;0.30;;;18.70;1.00;;;;;;5074769;28;20423;-53
2023/08/07 10:09:43;;;;;;;0.80;0.30;;;18.70;1.00;;;;;;5073929;28;20431;-56
2023/08/07 10:12:12;;;;;;;0.40;0.30;;;18.90;1.00;;;;;;5068653;28;20438;-56
2023/08/07 10:14:41;;;;;;;0.90;0.30;;;19.10;1.00;;;;;;5079779;28;20803;-56
2023/08/07 10:17:08;;;;;;;0.70;0.30;;;19.40;1.00;;;;;;5074950;28;20470;-55
2023/08/07 10:19:35;;;;;;;1.20;0.30;;;19.60;1.00;;;;;;5072944;28;21110;-57
2023/08/07 10:22:03;;;;;;;1.10;0.30;;;19.70;1.00;;;;;;5075763;28;20521;-58
2023/08/07 10:24:31;;;;;;;0.57;0.30;;;19.60;1.00;;;;;;5073520;28;20453;-57
2023/08/07 10:26:59;;;;;;;1.90;0.30;;;19.60;1.00;;;;;;5076054;28;20423;-57
2023/08/07 10:29:28;;;;;;;0.60;0.30;;;19.40;1.00;;;;;;5069699;28;20518;-57
2023/08/07 10:31:59;;;;;;;0.60;0.30;;;19.10;1.00;;;;;;5075215;28;21048;-57
2023/08/07 10:34:31;;;;;;;0.90;0.30;;;19.20;1.00;;;;;;5088468;28;20513;-55
2023/08/07 10:36:58;;;;;;;0.67;0.30;;;19.00;1.00;;;;;;5096634;28;20422;-55
2023/08/07 10:39:26;;;;;;;0.60;0.30;;;18.90;1.00;;;;;;5081517;28;20434;-58
2023/08/07 10:41:55;;;;;;;0.57;0.30;;;18.60;1.00;;;;;;5075897;28;20438;-56
2023/08/07 10:44:23;;;;;;;0.50;0.20;;;18.40;1.00;;;;;;5079439;28;20763;-55
2023/08/07 10:46:54;;;;;;;0.70;0.30;;;18.30;1.00;;;;;;5076424;28;20990;-56
2023/08/07 10:49:35;;;;;;;0.73;0.30;;;18.30;1.00;;;;;;5090976;28;20460;-55
2023/08/07 10:52:05;;;;;;;0.82;0.30;;;18.10;1.00;;;;;;5080830;28;20546;-56
2023/08/07 10:54:41;;;;;;;0.55;0.30;;;18.30;1.00;;;;;;5069721;28;20431;-56
2023/08/07 10:57:11;;;;;;;0.57;0.30;;;18.30;1.00;;;;;;5069828;28;20429;-54
2023/08/07 10:59:39;;;;;;;0.90;0.30;;;18.10;1.00;;;;;;5095427;28;20493;-57
2023/08/07 11:02:13;;;;;;;0.50;0.30;;;18.50;1.00;;;;;;5073201;28;20524;-56
2023/08/07 11:04:40;;;;;;;1.30;0.30;;;18.80;1.00;;;;;;5064296;28;20534;-57
2023/08/07 11:07:07;;;;;;;0.60;0.30;;;18.90;1.00;;;;;;5062064;28;20512;-57
2023/08/07 11:09:36;;;;;;;1.10;0.30;;;18.90;1.00;;;;;;5062012;28;20856;-55
2023/08/07 11:12:03;;;;;;;0.70;0.30;;;19.00;1.00;;;;;;5072946;28;20722;-55
2023/08/07 11:14:30;;;;;;;0.60;0.38;;;19.00;1.00;;;;;;5072686;28;20912;-56
2023/08/07 11:16:57;;;;;;;0.50;0.30;;;18.80;1.00;;;;;;5075021;28;20479;-56
2023/08/07 11:19:26;;;;;;;0.70;0.30;;;18.70;1.00;;;;;;5073979;28;20459;-55
2023/08/07 11:21:56;;;;;;;0.93;0.30;;;18.70;1.00;;;;;;5074396;28;20796;-55
2023/08/07 11:24:23;;;;;;;1.30;0.30;;;18.20;1.00;;;;;;5073565;28;20470;-56
2023/08/07 11:26:50;;;;;;;0.95;0.30;;;18.20;1.00;;;;;;5071899;28;20693;-53
2023/08/07 11:29:18;;;;;;;0.57;0.30;;;18.00;1.00;;;;;;5066219;28;20429;-56
2023/08/07 11:31:46;;;;;;;0.80;0.40;;;18.00;1.00;;;;;;5074218;28;20488;-57
2023/08/07 11:34:13;;;;;;;1.20;0.30;;;18.00;1.00;;;;;;5078810;28;20431;-54
2023/08/07 11:36:44;;;;;;;0.50;0.30;;;18.10;1.00;;;;;;5074935;28;20833;-54
2023/08/07 11:39:11;;;;;;;0.50;0.30;;;17.80;1.00;;;;;;5077540;28;20490;-56
2023/08/07 11:41:38;;;;;;;0.60;0.30;;;17.80;1.00;;;;;;5072233;28;20455;-57
2023/08/07 11:44:05;;;;;;;1.10;0.30;;;17.40;1.00;;;;;;5084810;28;20875;-56
2023/08/07 11:46:32;;;;;;;0.40;0.30;;;17.30;1.00;;;;;;5094838;28;20732;-57
2023/08/07 11:49:03;;;;;;;0.50;0.30;;;17.40;1.00;;;;;;5076118;28;20551;-55
2023/08/07 11:51:31;;;;;;;0.55;0.30;;;17.40;1.00;;;;;;5063991;28;20429;-55
2023/08/07 11:53:59;;;;;;;0.63;0.35;;;17.30;1.00;;;;;;5070210;28;20840;-54
2023/08/07 11:56:26;;;;;;;0.50;0.30;;;17.30;1.00;;;;;;5076116;28;20427;-56
2023/08/07 11:58:54;;;;;;;1.10;0.30;;;17.40;1.00;;;;;;5072718;28;20430;-57
2023/08/07 12:01:22;;;;;;;0.70;0.30;;;17.50;1.00;;;;;;5073802;28;20514;-55
2023/08/07 12:03:55;;;;;;;0.60;0.30;;;17.40;1.00;;;;;;5053854;28;20429;-58
2023/08/07 12:06:24;;;;;;;0.50;0.30;;;17.60;1.00;;;;;;5064170;28;20443;-57
2023/08/07 12:08:54;;;;;;;1.20;0.40;;;17.60;1.00;;;;;;5065886;28;20478;-58
2023/08/07 12:11:23;;;;;;;0.70;0.40;;;17.80;1.00;;;;;;5060033;28;20636;-58
2023/08/07 12:13:50;;;;;;;0.60;0.35;;;18.10;1.00;;;;;;5048636;28;20867;-57
2023/08/07 12:16:18;;;;;;;0.70;0.30;;;18.20;1.00;;;;;;5062202;28;20468;-57
2023/08/07 12:18:45;;;;;;;0.60;0.40;;;18.40;1.00;;;;;;5054275;28;20471;-58
2023/08/07 12:21:15;;;;;;;2.10;0.30;;;18.10;1.00;;;;;;5069518;28;20439;-58
2023/08/07 12:23:42;;;;;;;0.50;0.30;;;18.20;1.00;;;;;;5073763;28;20517;-57
2023/08/07 12:26:09;;;;;;;0.63;0.40;;;18.10;23.90;;;;;;5074682;28;20926;-58
2023/08/07 12:28:37;;;;;;;0.68;0.40;;;18.00;99.90;;;;;;5070218;28;20902;-58
2023/08/07 12:31:04;;;;;;;0.60;0.40;;;18.00;99.90;;;;;;5074123;28;20881;-58
2023/08/07 12:33:31;;;;;;;0.90;0.40;;;17.80;99.90;;;;;;5082786;28;20489;-58
2023/08/07 12:35:59;;;;;;;0.50;0.30;;;17.60;99.90;;;;;;5073782;28;20745;-58
2023/08/07 12:38:25;;;;;;;0.60;0.38;;;17.50;99.90;;;;;;5070385;28;20438;-58
2023/08/07 12:40:53;;;;;;;0.70;0.40;;;17.70;1.00;;;;;;5072285;28;20552;-58
2023/08/07 12:43:19;;;;;;;0.47;0.30;;;18.10;99.90;;;;;;5066480;28;20751;-58
2023/08/07 12:45:48;;;;;;;0.70;0.32;;;18.50;99.90;;;;;;5075093;28;20512;-58
2023/08/07 12:48:15;;;;;;;0.60;0.50;;;18.70;99.90;;;;;;5088898;28;20470;-58
2023/08/07 12:50:42;;;;;;;0.40;0.30;;;18.80;99.90;;;;;;5076194;28;20802;-57
2023/08/07 12:53:09;;;;;;;0.60;0.30;;;18.60;22.30;;;;;;5071394;28;20435;-57
2023/08/07 12:55:36;;;;;;;3.00;0.40;;;18.50;49.10;;;;;;5071475;28;20432;-55
2023/08/07 12:58:03;;;;;;;0.60;0.30;;;18.60;15.60;;;;;;5076818;28;20530;-54